createdAt,value
2023-03-18T00:01:33.445Z,10.70
2023-03-18T00:04:02.332Z,11.70
2023-03-18T00:06:31.002Z,15.30
2023-03-18T00:08:59.483Z,11.70
2023-03-18T00:11:28.130Z,12.00
2023-03-18T00:13:56.708Z,14.30
2023-03-18T00:16:27.289Z,13.40
2023-03-18T00:18:55.807Z,16.70
2023-03-18T00:21:24.743Z,11.80
2023-03-18T00:23:56.672Z,12.70
2023-03-18T00:26:27.377Z,11.60
2023-03-18T00:28:57.986Z,9.70
2023-03-18T00:31:28.509Z,15.70
2023-03-18T00:33:57.142Z,13.60
2023-03-18T00:36:28.441Z,15.00
2023-03-18T00:38:58.233Z,11.00
2023-03-18T00:41:28.353Z,12.90
2023-03-18T00:43:58.396Z,9.90
2023-03-18T00:46:37.992Z,10.50
2023-03-18T00:49:08.950Z,13.50
2023-03-18T00:51:38.598Z,12.70
2023-03-18T00:54:09.982Z,11.50
2023-03-18T00:56:39.776Z,14.30
2023-03-18T00:59:09.012Z,11.40
2023-03-18T01:01:39.077Z,11.40
2023-03-18T01:04:08.020Z,11.40
2023-03-18T01:06:38.649Z,14.30
2023-03-18T01:09:10.146Z,10.50
2023-03-18T01:11:39.314Z,13.00
2023-03-18T01:14:08.028Z,12.50
2023-03-18T01:16:36.685Z,11.70
2023-03-18T01:19:05.207Z,12.30
2023-03-18T01:21:34.003Z,14.30
2023-03-18T01:24:04.547Z,15.40
2023-03-18T01:26:34.675Z,14.60
2023-03-18T01:29:04.150Z,14.20
2023-03-18T01:31:34.871Z,15.70
2023-03-18T01:34:07.847Z,11.90
2023-03-18T01:36:45.046Z,16.60
2023-03-18T01:39:14.514Z,12.80
2023-03-18T01:41:43.094Z,12.50
2023-03-18T01:44:15.506Z,13.90
2023-03-18T01:46:50.103Z,22.30
2023-03-18T01:49:39.789Z,15.60
2023-03-18T01:52:20.915Z,12.10
2023-03-18T01:55:03.649Z,14.20
2023-03-18T01:57:34.149Z,12.50
2023-03-18T02:00:04.831Z,11.00
2023-03-18T02:02:44.898Z,15.60
2023-03-18T02:05:19.156Z,13.20
2023-03-18T02:07:47.983Z,13.60
2023-03-18T02:10:29.807Z,12.70
2023-03-18T02:13:06.856Z,11.10
2023-03-18T02:15:47.697Z,11.50
2023-03-18T02:18:25.327Z,12.40
2023-03-18T02:21:11.618Z,15.90
2023-03-18T02:24:01.877Z,15.60
2023-03-18T02:27:02.128Z,14.10
2023-03-18T02:29:38.625Z,13.60
2023-03-18T02:32:10.852Z,13.40
2023-03-18T02:34:41.020Z,17.00
2023-03-18T02:37:09.848Z,13.00
2023-03-18T02:39:39.669Z,10.90
2023-03-18T02:42:13.273Z,7.50
2023-03-18T02:44:47.202Z,10.40
2023-03-18T02:48:08.331Z,13.50
2023-03-18T02:50:36.871Z,10.70
2023-03-18T02:53:05.682Z,11.00
2023-03-18T02:55:34.166Z,14.40
2023-03-18T02:58:02.653Z,14.00
2023-03-18T03:00:31.805Z,9.60
2023-03-18T03:03:01.828Z,13.90
2023-03-18T03:05:30.312Z,13.30
2023-03-18T03:07:58.813Z,14.60
2023-03-18T03:10:27.591Z,16.10
2023-03-18T03:12:57.372Z,12.40
2023-03-18T03:15:26.845Z,12.20
2023-03-18T03:17:58.489Z,13.30
2023-03-18T03:20:27.169Z,12.20
2023-03-18T03:22:55.743Z,14.40
2023-03-18T03:25:24.150Z,13.40
2023-03-18T03:27:52.761Z,13.70
2023-03-18T03:30:23.053Z,12.90
2023-03-18T03:32:51.879Z,10.20
2023-03-18T03:35:21.591Z,9.20
2023-03-18T03:37:50.680Z,12.50
2023-03-18T03:40:20.578Z,12.50
2023-03-18T03:42:49.403Z,7.90
2023-03-18T03:45:19.346Z,12.90
2023-03-18T03:47:48.341Z,10.10
2023-03-18T03:50:18.304Z,10.40
2023-03-18T03:52:47.283Z,8.70
2023-03-18T03:55:19.684Z,9.50
2023-03-18T03:57:48.578Z,11.20
2023-03-18T04:00:21.392Z,11.40
2023-03-18T04:02:52.730Z,11.30
2023-03-18T04:05:24.861Z,9.00
2023-03-18T04:07:54.278Z,8.90
2023-03-18T04:10:32.334Z,9.10
2023-03-18T04:13:01.300Z,11.70
2023-03-18T04:15:29.933Z,8.80
2023-03-18T04:18:02.355Z,10.10
2023-03-18T04:20:32.083Z,10.70
2023-03-18T04:23:01.338Z,8.10
2023-03-18T04:25:30.724Z,8.80
2023-03-18T04:27:59.465Z,10.30
2023-03-18T04:30:28.454Z,7.60
2023-03-18T04:33:07.206Z,10.70
2023-03-18T04:35:37.805Z,10.40
2023-03-18T04:38:06.779Z,10.70
2023-03-18T04:40:35.384Z,8.00
2023-03-18T04:43:04.190Z,8.20
2023-03-18T04:45:32.779Z,10.20
2023-03-18T04:48:02.372Z,9.90
2023-03-18T04:50:33.376Z,10.70
2023-03-18T04:53:03.622Z,11.10
2023-03-18T04:55:32.686Z,10.00
2023-03-18T04:58:01.996Z,9.10
2023-03-18T05:00:32.113Z,8.40
2023-03-18T05:03:13.045Z,9.40
2023-03-18T05:05:42.261Z,9.90
2023-03-18T05:08:11.259Z,8.30
2023-03-18T05:10:40.389Z,10.30
2023-03-18T05:13:09.670Z,8.40
2023-03-18T05:15:38.517Z,7.30
2023-03-18T05:18:07.040Z,8.00
2023-03-18T05:20:36.229Z,9.40
2023-03-18T05:23:06.015Z,9.90
2023-03-18T05:25:50.066Z,11.10
2023-03-18T05:28:18.897Z,8.70
2023-03-18T05:30:54.033Z,8.20
2023-03-18T05:33:23.436Z,9.10
2023-03-18T05:35:57.110Z,10.70
2023-03-18T05:38:30.016Z,11.00
2023-03-18T05:40:58.919Z,8.70
2023-03-18T05:43:33.796Z,10.60
2023-03-18T05:46:02.605Z,8.70
2023-03-18T05:48:47.828Z,13.00
2023-03-18T05:51:16.269Z,11.80
2023-03-18T05:53:44.856Z,12.70
2023-03-18T05:56:26.461Z,10.20
2023-03-18T05:58:58.821Z,11.70
2023-03-18T06:01:44.797Z,10.40
2023-03-18T06:04:13.376Z,10.20
2023-03-18T06:06:42.304Z,11.40
2023-03-18T06:09:13.497Z,12.00
2023-03-18T06:11:44.713Z,9.60
2023-03-18T06:14:13.660Z,10.40
2023-03-18T06:16:43.445Z,6.40
2023-03-18T06:19:13.611Z,8.60
2023-03-18T06:21:42.638Z,10.50
2023-03-18T06:24:11.463Z,11.80
2023-03-18T06:26:40.025Z,12.90
2023-03-18T06:29:08.622Z,10.50
2023-03-18T06:31:37.861Z,11.00
2023-03-18T06:34:07.290Z,13.20
2023-03-18T06:36:37.733Z,15.00
2023-03-18T06:39:08.124Z,14.40
2023-03-18T06:41:37.311Z,11.90
2023-03-18T06:44:21.085Z,17.50
2023-03-18T06:46:49.726Z,14.30
2023-03-18T06:49:18.915Z,15.10
2023-03-18T06:51:51.839Z,14.30
2023-03-18T06:54:20.456Z,18.60
2023-03-18T06:56:50.237Z,14.60
2023-03-18T06:59:21.650Z,14.80
2023-03-18T07:01:50.637Z,14.30
2023-03-18T07:04:20.939Z,17.70
2023-03-18T07:06:50.236Z,14.50
2023-03-18T07:09:20.051Z,17.20
2023-03-18T07:11:53.769Z,18.10
2023-03-18T07:14:23.746Z,17.10
2023-03-18T07:16:52.555Z,17.20
2023-03-18T07:19:22.157Z,20.50
2023-03-18T07:21:51.084Z,17.30
2023-03-18T07:24:21.667Z,17.30
2023-03-18T07:26:53.739Z,20.30
2023-03-18T07:29:22.320Z,18.80
2023-03-18T07:31:51.352Z,19.40
2023-03-18T07:34:20.086Z,20.60
2023-03-18T07:36:48.729Z,19.30
2023-03-18T07:39:17.315Z,17.90
2023-03-18T07:41:45.790Z,19.00
2023-03-18T07:44:21.970Z,15.10
2023-03-18T07:46:50.510Z,19.30
2023-03-18T07:49:19.040Z,21.40
2023-03-18T07:51:47.484Z,19.50
2023-03-18T07:54:16.286Z,18.20
2023-03-18T07:56:44.894Z,23.10
2023-03-18T07:59:13.388Z,18.50
2023-03-18T08:01:42.087Z,24.10
2023-03-18T08:04:11.914Z,18.90
2023-03-18T08:06:40.426Z,20.00
2023-03-18T08:09:09.231Z,19.80
2023-03-18T08:11:38.305Z,19.50
2023-03-18T08:14:07.376Z,20.70
2023-03-18T08:16:35.883Z,20.60
2023-03-18T08:19:04.442Z,23.00
2023-03-18T08:21:32.903Z,19.00
2023-03-18T08:24:01.438Z,18.00
2023-03-18T08:26:30.030Z,22.50
2023-03-18T08:28:58.444Z,21.70
2023-03-18T08:31:26.969Z,19.50
2023-03-18T08:33:56.659Z,23.60
2023-03-18T08:36:27.149Z,29.20
2023-03-18T08:38:56.662Z,22.70
2023-03-18T08:41:26.308Z,22.60
2023-03-18T08:43:57.522Z,24.60
2023-03-18T08:46:26.179Z,24.90
2023-03-18T08:48:54.680Z,29.30
2023-03-18T08:51:23.367Z,27.00
2023-03-18T08:53:52.002Z,23.70
2023-03-18T08:56:20.688Z,27.10
2023-03-18T08:58:49.177Z,26.60
2023-03-18T09:01:19.926Z,28.00
2023-03-18T09:03:52.038Z,26.30
2023-03-18T09:06:21.128Z,27.10
2023-03-18T09:08:49.660Z,24.30
2023-03-18T09:11:18.728Z,26.30
2023-03-18T09:13:47.270Z,23.80
2023-03-18T09:16:16.167Z,27.00
2023-03-18T09:18:47.019Z,29.70
2023-03-18T09:21:17.433Z,31.00
2023-03-18T09:23:46.142Z,29.20
2023-03-18T09:26:15.061Z,26.70
2023-03-18T09:28:43.607Z,27.40
2023-03-18T09:31:13.199Z,23.90
2023-03-18T09:33:43.484Z,28.40
2023-03-18T09:36:11.960Z,26.80
2023-03-18T09:38:41.431Z,28.20
2023-03-18T09:41:35.631Z,24.20
2023-03-18T09:44:24.554Z,26.20
2023-03-18T09:47:42.234Z,21.70
2023-03-18T09:50:48.756Z,24.20
2023-03-18T09:53:31.859Z,26.40
2023-03-18T09:56:03.021Z,28.40
2023-03-18T09:59:14.965Z,23.50
2023-03-18T10:01:46.475Z,30.10
2023-03-18T10:04:26.884Z,25.20
2023-03-18T10:07:03.069Z,25.10
2023-03-18T10:09:39.379Z,27.80
2023-03-18T10:12:35.527Z,27.60
2023-03-18T10:15:20.742Z,25.50
2023-03-18T10:18:28.137Z,27.10
2023-03-18T10:21:09.245Z,25.80
2023-03-18T10:24:04.555Z,28.30
2023-03-18T10:26:56.591Z,32.00
2023-03-18T10:29:58.551Z,29.40
2023-03-18T10:32:52.369Z,29.10
2023-03-18T10:36:02.291Z,32.60
2023-03-18T10:38:32.440Z,30.20
2023-03-18T10:41:02.053Z,31.30
2023-03-18T10:43:32.774Z,33.00
2023-03-18T10:46:05.318Z,32.30
2023-03-18T10:48:40.226Z,27.80
2023-03-18T10:51:45.569Z,27.90
2023-03-18T10:54:39.626Z,30.90
2023-03-18T10:57:18.456Z,32.50
2023-03-18T10:59:47.812Z,29.60
2023-03-18T11:02:39.104Z,27.50
2023-03-18T11:05:23.738Z,28.20
2023-03-18T11:10:37.114Z,26.00
2023-03-18T11:13:06.663Z,27.50
2023-03-18T11:15:50.316Z,27.30
2023-03-18T11:18:24.643Z,25.50
2023-03-18T11:21:01.563Z,31.00
2023-03-18T11:23:56.524Z,27.60
2023-03-18T11:26:31.048Z,26.60
2023-03-18T11:29:11.004Z,27.80
2023-03-18T11:31:52.329Z,28.80
2023-03-18T11:34:21.573Z,25.40
2023-03-18T11:37:11.951Z,27.50
2023-03-18T11:39:41.760Z,26.20
2023-03-18T11:42:40.615Z,29.70
2023-03-18T11:45:40.860Z,26.10
2023-03-18T11:48:37.599Z,26.50
2023-03-18T11:51:35.209Z,28.20
2023-03-18T11:54:45.961Z,25.40
2023-03-18T11:57:50.087Z,25.60
2023-03-18T12:00:52.805Z,26.60
2023-03-18T12:04:03.679Z,27.00
2023-03-18T12:06:41.624Z,24.80
2023-03-18T12:09:37.099Z,25.80
2023-03-18T12:12:44.556Z,27.60
2023-03-18T12:15:23.530Z,27.70
2023-03-18T12:18:25.771Z,26.40
2023-03-18T12:21:15.450Z,27.20
2023-03-18T12:24:05.022Z,27.60
2023-03-18T12:27:14.564Z,30.50
2023-03-18T12:30:14.540Z,29.20
2023-03-18T12:32:56.454Z,25.40
2023-03-18T12:35:48.773Z,29.40
2023-03-18T12:38:38.507Z,31.70
2023-03-18T12:41:27.841Z,27.30
2023-03-18T12:44:23.039Z,28.80
2023-03-18T12:47:11.987Z,29.00
2023-03-18T12:50:00.954Z,29.40
2023-03-18T12:53:00.243Z,27.40
2023-03-18T12:55:37.052Z,26.10
2023-03-18T12:58:19.285Z,29.30
2023-03-18T13:01:09.906Z,29.40
2023-03-18T13:03:44.753Z,28.20
2023-03-18T13:06:44.639Z,29.60
2023-03-18T13:09:31.922Z,31.70
2023-03-18T13:12:16.660Z,31.60
2023-03-18T13:14:44.996Z,29.50
2023-03-18T13:17:20.889Z,30.00
2023-03-18T13:19:49.568Z,29.20
2023-03-18T13:23:09.859Z,30.30
2023-03-18T13:25:56.826Z,28.60
2023-03-18T13:28:50.343Z,28.70
2023-03-18T13:31:47.585Z,29.90
2023-03-18T13:34:57.176Z,28.40
2023-03-18T13:37:50.163Z,29.40
2023-03-18T13:41:07.819Z,29.20
2023-03-18T13:43:40.602Z,29.60
2023-03-18T13:46:33.137Z,32.10
2023-03-18T13:49:03.425Z,30.40
2023-03-18T13:51:32.144Z,30.80
2023-03-18T13:54:08.865Z,28.80
2023-03-18T13:56:43.354Z,29.70
2023-03-18T13:59:33.318Z,27.00
2023-03-18T14:02:29.599Z,26.80
2023-03-18T14:04:59.700Z,29.80
2023-03-18T14:07:28.740Z,28.50
2023-03-18T14:10:18.281Z,28.20
2023-03-18T14:12:48.596Z,32.00
2023-03-18T14:15:44.606Z,33.10
2023-03-18T14:18:28.397Z,29.10
2023-03-18T14:21:02.265Z,30.00
2023-03-18T14:23:40.084Z,30.20
2023-03-18T14:26:25.306Z,27.90
2023-03-18T14:29:22.679Z,25.60
2023-03-18T14:32:02.747Z,28.90
2023-03-18T14:34:55.478Z,31.90
2023-03-18T14:37:30.489Z,33.90
2023-03-18T14:40:17.883Z,25.90
2023-03-18T14:42:59.775Z,28.70
2023-03-18T14:45:35.617Z,29.10
2023-03-18T14:48:17.779Z,26.70
2023-03-18T14:50:52.374Z,30.70
2023-03-18T14:54:01.379Z,29.10
2023-03-18T14:56:36.968Z,27.60
2023-03-18T14:59:05.385Z,30.00
2023-03-18T15:01:44.467Z,28.50
2023-03-18T15:04:25.250Z,29.30
2023-03-18T15:06:56.911Z,26.80
2023-03-18T15:09:32.603Z,29.50
2023-03-18T15:12:16.700Z,27.00
2023-03-18T15:14:45.319Z,25.80
2023-03-18T15:17:17.356Z,33.40
2023-03-18T15:19:46.553Z,29.80
2023-03-18T15:22:28.528Z,23.90
2023-03-18T15:25:08.590Z,26.30
2023-03-18T15:27:37.481Z,27.10
2023-03-18T15:30:07.814Z,27.10
2023-03-18T15:32:49.974Z,28.40
2023-03-18T15:35:26.799Z,36.00
2023-03-18T15:38:19.360Z,35.40
2023-03-18T15:41:10.626Z,29.20
2023-03-18T15:43:45.154Z,31.50
2023-03-18T15:46:25.887Z,27.50
2023-03-18T15:48:57.664Z,31.80
2023-03-18T15:51:48.139Z,32.40
2023-03-18T15:54:24.954Z,25.90
2023-03-18T15:56:55.337Z,25.20
2023-03-18T15:59:35.034Z,20.70
2023-03-18T16:02:05.980Z,30.10
2023-03-18T16:04:35.574Z,27.60
2023-03-18T16:07:04.570Z,28.00
2023-03-18T16:09:34.703Z,29.70
2023-03-18T16:12:13.980Z,26.30
2023-03-18T16:14:45.486Z,38.30
2023-03-18T16:17:15.902Z,31.90
2023-03-18T16:19:45.825Z,32.50
2023-03-18T16:22:15.440Z,35.40
2023-03-18T16:24:44.348Z,39.80
2023-03-18T16:27:41.154Z,40.90
2023-03-18T16:30:23.302Z,32.50
2023-03-18T16:32:53.207Z,30.50
2023-03-18T16:35:34.073Z,38.70
2023-03-18T16:38:02.776Z,36.30
2023-03-18T16:40:33.333Z,36.60
2023-03-18T16:43:02.312Z,40.90
2023-03-18T16:45:33.970Z,33.80
2023-03-18T16:48:06.914Z,37.00
2023-03-18T16:50:39.221Z,38.20
2023-03-18T16:53:18.151Z,42.20
2023-03-18T16:55:54.017Z,42.40
2023-03-18T16:58:30.739Z,40.50
2023-03-18T17:01:00.208Z,38.80
2023-03-18T17:03:29.454Z,44.00
2023-03-18T17:05:58.503Z,45.60
2023-03-18T17:08:26.979Z,41.50
2023-03-18T17:10:59.722Z,37.90
2023-03-18T17:13:32.290Z,34.60
2023-03-18T17:16:01.862Z,41.10
2023-03-18T17:18:30.349Z,41.50
2023-03-18T17:20:58.849Z,50.90
2023-03-18T17:23:28.709Z,52.90
2023-03-18T17:26:00.329Z,50.70
2023-03-18T17:28:35.982Z,47.50
2023-03-18T17:31:05.257Z,51.20
2023-03-18T17:33:36.080Z,59.10
2023-03-18T17:36:07.004Z,61.80
2023-03-18T17:38:36.294Z,58.60
2023-03-18T17:41:14.352Z,58.10
2023-03-18T17:43:42.908Z,51.30
2023-03-18T17:46:11.554Z,53.10
2023-03-18T17:48:41.207Z,55.50
2023-03-18T17:51:19.098Z,50.40
2023-03-18T17:53:59.201Z,53.90
2023-03-18T17:56:28.919Z,53.80
2023-03-18T17:58:57.418Z,52.10
2023-03-18T18:01:29.030Z,55.30
2023-03-18T18:03:59.835Z,47.20
2023-03-18T18:06:29.856Z,53.10
2023-03-18T18:09:00.716Z,49.40
2023-03-18T18:11:38.017Z,44.80
2023-03-18T18:14:29.086Z,45.10
2023-03-18T18:16:57.653Z,43.40
2023-03-18T18:19:26.221Z,41.80
2023-03-18T18:21:55.216Z,39.40
2023-03-18T18:24:29.232Z,41.40
2023-03-18T18:26:58.407Z,39.40
2023-03-18T18:29:29.647Z,44.90
2023-03-18T18:31:58.384Z,38.30
2023-03-18T18:34:26.784Z,33.10
2023-03-18T18:36:55.303Z,40.50
2023-03-18T18:39:24.485Z,39.20
2023-03-18T18:41:53.113Z,38.70
2023-03-18T18:44:22.425Z,38.40
2023-03-18T18:46:50.957Z,34.80
2023-03-18T18:49:24.545Z,33.80
2023-03-18T18:51:55.771Z,38.00
2023-03-18T18:54:25.262Z,38.80
2023-03-18T18:56:53.734Z,33.20
2023-03-18T18:59:27.110Z,36.60
2023-03-18T19:01:56.962Z,31.30
2023-03-18T19:04:25.418Z,33.50
2023-03-18T19:06:54.198Z,31.10
2023-03-18T19:09:26.072Z,35.20
2023-03-18T19:11:56.602Z,31.10
2023-03-18T19:14:29.638Z,31.30
2023-03-18T19:16:59.931Z,34.50
2023-03-18T19:19:31.593Z,38.30
2023-03-18T19:22:00.568Z,36.30
2023-03-18T19:24:31.575Z,31.60
2023-03-18T19:27:03.338Z,27.70
2023-03-18T19:29:35.709Z,34.50
2023-03-18T19:32:04.609Z,33.70
2023-03-18T19:34:34.014Z,35.90
2023-03-18T19:37:06.022Z,33.80
2023-03-18T19:39:34.382Z,31.10
2023-03-18T19:42:02.818Z,31.80
2023-03-18T19:44:31.365Z,27.10
2023-03-18T19:47:01.266Z,32.10
2023-03-18T19:49:35.257Z,28.00
2023-03-18T19:52:17.333Z,32.10
2023-03-18T19:54:47.650Z,27.80
2023-03-18T19:57:20.408Z,33.40
2023-03-18T19:59:50.492Z,27.70
2023-03-18T20:02:30.650Z,25.90
2023-03-18T20:05:02.342Z,28.20
2023-03-18T20:07:35.440Z,31.60
2023-03-18T20:10:04.362Z,26.10
2023-03-18T20:12:49.399Z,27.80
2023-03-18T20:15:25.259Z,31.00
2023-03-18T20:17:54.091Z,32.60
2023-03-18T20:20:31.485Z,30.30
2023-03-18T20:23:03.609Z,26.50
2023-03-18T20:25:42.490Z,31.00
2023-03-18T20:28:17.804Z,29.10
2023-03-18T20:30:50.858Z,29.40
2023-03-18T20:33:20.799Z,23.50
2023-03-18T20:35:52.660Z,30.20
2023-03-18T20:38:24.746Z,25.50
2023-03-18T20:40:53.420Z,29.10
2023-03-18T20:43:24.163Z,29.70
2023-03-18T20:45:53.161Z,30.60
2023-03-18T20:48:25.104Z,32.60
2023-03-18T20:50:55.405Z,31.60
2023-03-18T20:53:28.713Z,30.70
2023-03-18T20:55:57.737Z,31.80
2023-03-18T20:58:29.255Z,30.70
2023-03-18T21:00:57.959Z,28.60
2023-03-18T21:03:30.749Z,30.90
2023-03-18T21:06:01.701Z,25.70
2023-03-18T21:08:32.188Z,31.60
2023-03-18T21:11:02.191Z,31.10
2023-03-18T21:13:39.120Z,37.10
2023-03-18T21:16:14.667Z,32.60
2023-03-18T21:18:45.924Z,33.60
2023-03-18T21:21:20.826Z,32.80
2023-03-18T21:23:49.937Z,39.20
2023-03-18T21:26:18.844Z,34.00
2023-03-18T21:28:47.263Z,35.00
2023-03-18T21:31:24.352Z,32.40
2023-03-18T21:33:53.691Z,33.40
2023-03-18T21:36:22.623Z,35.00
2023-03-18T21:38:51.088Z,32.70
2023-03-18T21:41:28.141Z,40.40
2023-03-18T21:43:56.846Z,37.10
2023-03-18T21:46:28.588Z,41.60
2023-03-18T21:48:57.403Z,37.00
2023-03-18T21:51:39.897Z,37.10
2023-03-18T21:54:19.313Z,45.90
2023-03-18T21:56:47.805Z,45.60
2023-03-18T21:59:16.478Z,38.20
2023-03-18T22:01:44.955Z,37.80
2023-03-18T22:04:13.550Z,41.70
2023-03-18T22:06:42.028Z,33.90
2023-03-18T22:09:10.842Z,43.20
2023-03-18T22:11:39.372Z,37.40
2023-03-18T22:14:13.494Z,38.50
2023-03-18T22:19:10.132Z,34.50
2023-03-18T22:21:38.510Z,30.80
2023-03-18T22:24:10.602Z,36.80
2023-03-18T22:26:39.019Z,28.80
2023-03-18T22:29:07.419Z,31.90
2023-03-18T22:31:42.484Z,34.90
2023-03-18T22:34:24.219Z,30.90
2023-03-18T22:36:53.647Z,34.80
2023-03-18T22:39:22.110Z,32.10
2023-03-18T22:41:50.465Z,28.20
2023-03-18T22:44:24.318Z,30.70
2023-03-18T22:46:52.777Z,31.10
2023-03-18T22:49:21.204Z,33.30
2023-03-18T22:51:49.674Z,34.80
2023-03-18T22:54:19.157Z,34.20
2023-03-18T22:56:47.574Z,38.90
2023-03-18T22:59:16.173Z,30.80
2023-03-18T23:01:44.736Z,34.10
2023-03-18T23:04:13.384Z,33.20
2023-03-18T23:06:41.849Z,29.60
2023-03-18T23:09:10.285Z,26.40
2023-03-18T23:11:38.742Z,33.30
2023-03-18T23:14:10.681Z,33.20
2023-03-18T23:16:39.162Z,37.80
2023-03-18T23:19:07.569Z,32.80
2023-03-18T23:21:35.977Z,31.10
2023-03-18T23:24:04.675Z,32.60
2023-03-18T23:26:33.176Z,31.70
2023-03-18T23:29:02.925Z,33.90
2023-03-18T23:31:32.223Z,33.30
2023-03-18T23:34:00.761Z,28.40
2023-03-18T23:36:29.160Z,27.10
2023-03-18T23:38:57.740Z,31.50
2023-03-18T23:41:26.216Z,26.80
2023-03-18T23:43:54.769Z,31.90
2023-03-18T23:46:23.263Z,36.50
2023-03-18T23:48:51.788Z,32.70
2023-03-18T23:51:20.215Z,29.40
2023-03-18T23:53:48.636Z,29.60
2023-03-18T23:56:17.456Z,30.30
2023-03-18T23:58:46.004Z,27.50
